Archival Weather

South Haven Area Rgnl

South Haven, Michigan (KLWA)

Report from: Tuesday, September 19, 2023 6:55 AM EDT
Current time: Tuesday, July 16, 2024 5:20 AM EDT

Current weather – Weather history – Daily summaries
Weather forecast

Temperature9.5°C (49.1°F)
Dew point8.8°C (47.8°F)
Winds Calm
Visibility10 mi. (16.1 km)
Clouds Ceiling: Broken clouds 7,000 ft. (2,134 m)
Altimeter30.06 in.Hg (1018 mB)
Relative humidity95 %
Density altitude-657 ft. (-200 m)
Remarks Fully automated report
Automated weather observing station with precipitation discriminator
Flight conditions Visual Meteorological Conditions
Raw dataKLWA 191055Z AUTO 00000KT 10SM BKN070 10/09 A3006 RMK AO2 T00950088
An error has occurred. This application may no longer respond until reloaded. Reload 🗙